createdAt,value
2022-11-05T00:02:59.755Z,10.43
2022-11-05T00:08:25.645Z,10.49
2022-11-05T00:13:51.434Z,10.55
2022-11-05T00:19:07.646Z,10.56
2022-11-05T00:24:33.369Z,10.58
2022-11-05T00:29:40.691Z,10.59
2022-11-05T00:34:47.997Z,10.60
2022-11-05T00:39:55.298Z,10.61
2022-11-05T00:45:02.553Z,10.60
2022-11-05T00:50:11.786Z,10.58
2022-11-05T00:55:19.084Z,10.59
2022-11-05T01:00:28.682Z,10.58
2022-11-05T01:05:39.658Z,10.50
2022-11-05T01:10:48.744Z,10.35
2022-11-05T01:15:57.163Z,10.23
2022-11-05T01:21:13.310Z,10.18
2022-11-05T01:26:20.307Z,10.12
2022-11-05T01:31:29.099Z,10.11
2022-11-05T01:36:36.151Z,10.08
2022-11-05T01:41:43.518Z,10.02
2022-11-05T01:46:50.839Z,9.95
2022-11-05T01:51:59.887Z,9.92
2022-11-05T01:57:11.351Z,9.95
2022-11-05T02:02:19.015Z,9.92
2022-11-05T02:07:29.741Z,9.90
2022-11-05T02:12:38.920Z,9.91
2022-11-05T02:17:53.347Z,9.94
2022-11-05T02:23:36.161Z,10.01
2022-11-05T02:29:06.629Z,10.11
2022-11-05T02:34:22.580Z,10.15
2022-11-05T02:39:45.107Z,10.11
2022-11-05T02:45:00.215Z,10.03
2022-11-05T02:50:15.710Z,9.93
2022-11-05T02:55:31.170Z,9.80
2022-11-05T03:00:49.747Z,9.67
2022-11-05T03:06:16.194Z,9.55
2022-11-05T03:11:27.412Z,9.46
2022-11-05T03:16:40.761Z,9.35
2022-11-05T03:21:53.498Z,9.26
2022-11-05T03:27:05.392Z,9.21
2022-11-05T03:32:15.941Z,9.20
2022-11-05T03:37:27.113Z,9.20
2022-11-05T03:42:38.433Z,9.14
2022-11-05T03:47:48.813Z,9.09
2022-11-05T03:53:00.419Z,9.04
2022-11-05T03:58:08.811Z,9.03
2022-11-05T04:03:15.834Z,8.99
2022-11-05T04:08:40.493Z,8.93
2022-11-05T04:13:47.539Z,8.87
2022-11-05T04:18:54.715Z,8.86
2022-11-05T04:24:10.603Z,8.86
2022-11-05T04:29:35.715Z,8.84
2022-11-05T04:34:42.564Z,8.84
2022-11-05T04:39:49.618Z,8.85
2022-11-05T04:44:57.488Z,8.86
2022-11-05T04:50:05.219Z,8.83
2022-11-05T04:55:12.969Z,8.79
2022-11-05T05:00:22.344Z,8.75
2022-11-05T05:05:30.965Z,8.74
2022-11-05T05:10:38.141Z,8.74
2022-11-05T05:15:43.644Z,8.74
2022-11-05T05:21:08.292Z,8.72
2022-11-05T05:26:15.548Z,8.71
2022-11-05T05:31:23.324Z,8.70
2022-11-05T05:36:30.978Z,8.65
2022-11-05T05:41:38.490Z,8.60
2022-11-05T05:46:45.398Z,8.53
2022-11-05T05:51:52.770Z,8.48
2022-11-05T05:56:59.772Z,8.43
2022-11-05T06:02:05.335Z,8.43
2022-11-05T06:07:12.437Z,8.43
2022-11-05T06:12:19.326Z,8.42
2022-11-05T06:17:26.950Z,8.37
2022-11-05T06:22:34.547Z,8.33
2022-11-05T06:27:41.948Z,8.29
2022-11-05T06:32:48.899Z,8.26
2022-11-05T06:37:59.887Z,8.26
2022-11-05T06:43:07.019Z,8.25
2022-11-05T06:48:12.406Z,8.22
2022-11-05T06:53:19.471Z,8.18
2022-11-05T06:58:28.155Z,8.17
2022-11-05T07:03:35.453Z,8.17
2022-11-05T07:08:42.759Z,8.19
2022-11-05T07:13:49.697Z,8.20
2022-11-05T07:18:58.341Z,8.18
2022-11-05T07:24:06.334Z,8.17
2022-11-05T07:29:13.430Z,8.17
2022-11-05T07:34:19.040Z,8.18
2022-11-05T07:39:26.238Z,8.18
2022-11-05T07:44:33.620Z,8.18
2022-11-05T07:49:40.526Z,8.19
2022-11-05T07:54:47.596Z,8.20
2022-11-05T07:59:53.102Z,8.22
2022-11-05T08:05:00.096Z,8.22
2022-11-05T08:10:05.764Z,8.21
2022-11-05T08:15:13.693Z,8.20
2022-11-05T08:20:21.616Z,8.20
2022-11-05T08:25:29.484Z,8.24
2022-11-05T08:30:37.813Z,8.29
2022-11-05T08:35:45.542Z,8.30
2022-11-05T08:40:59.324Z,8.30
2022-11-05T08:46:07.034Z,8.29
2022-11-05T08:51:14.219Z,8.30
2022-11-05T08:56:21.943Z,8.32
2022-11-05T09:01:29.099Z,8.35
2022-11-05T09:06:36.776Z,8.38
2022-11-05T09:12:10.408Z,8.39
2022-11-05T09:17:19.734Z,8.40
2022-11-05T09:22:27.458Z,8.39
2022-11-05T09:27:34.694Z,8.41
2022-11-05T09:32:42.294Z,8.46
2022-11-05T09:37:49.509Z,8.46
2022-11-05T09:42:57.311Z,8.46
2022-11-05T09:48:11.889Z,8.46
2022-11-05T09:53:21.173Z,8.50
2022-11-05T09:58:38.568Z,8.50
2022-11-05T10:03:49.554Z,8.49
2022-11-05T10:09:02.504Z,8.50
2022-11-05T10:14:19.293Z,8.53
2022-11-05T10:19:29.910Z,8.56
2022-11-05T10:24:44.485Z,8.58
2022-11-05T10:29:53.788Z,8.62
2022-11-05T10:35:03.685Z,8.70
2022-11-05T10:40:21.115Z,8.74
2022-11-05T10:45:32.021Z,8.79
2022-11-05T10:50:40.066Z,8.82
2022-11-05T10:55:50.991Z,8.82
2022-11-05T11:01:12.825Z,8.78
2022-11-05T11:06:27.547Z,8.77
2022-11-05T11:11:37.893Z,8.81
2022-11-05T11:16:46.760Z,8.87
2022-11-05T11:27:36.571Z,8.93
2022-11-05T11:32:43.993Z,8.90
2022-11-05T11:37:54.034Z,8.89
2022-11-05T11:43:05.703Z,8.89
2022-11-05T11:48:19.634Z,8.85
2022-11-05T11:53:42.315Z,8.81
2022-11-05T11:58:51.787Z,8.79
2022-11-05T12:04:08.466Z,8.79
2022-11-05T12:09:24.672Z,8.80
2022-11-05T12:14:46.249Z,8.77
2022-11-05T12:20:23.416Z,8.76
2022-11-05T12:25:38.292Z,8.76
2022-11-05T12:30:54.175Z,8.76
2022-11-05T12:36:12.153Z,8.77
2022-11-05T12:41:28.708Z,8.77
2022-11-05T12:46:46.237Z,8.78
2022-11-05T12:52:08.080Z,8.82
2022-11-05T12:57:18.021Z,8.86
2022-11-05T13:02:30.755Z,8.87
2022-11-05T13:07:44.946Z,8.86
2022-11-05T13:13:00.410Z,8.86
2022-11-05T13:18:13.429Z,8.88
2022-11-05T13:23:32.355Z,8.89
2022-11-05T13:28:48.132Z,8.88
2022-11-05T13:33:56.630Z,8.88
2022-11-05T13:39:12.642Z,8.87
2022-11-05T13:44:39.940Z,8.87
2022-11-05T13:50:19.715Z,8.87
2022-11-05T13:55:47.866Z,8.87
2022-11-05T14:01:08.623Z,8.85
2022-11-05T14:06:24.907Z,8.83
2022-11-05T14:11:35.617Z,8.82
2022-11-05T14:16:53.878Z,8.80
2022-11-05T14:22:01.655Z,8.77
2022-11-05T14:27:43.664Z,8.76
2022-11-05T14:32:53.323Z,8.73
2022-11-05T14:38:02.417Z,8.70
2022-11-05T14:43:19.061Z,8.70
2022-11-05T14:48:40.778Z,8.74
2022-11-05T14:53:48.583Z,8.79
2022-11-05T14:59:41.559Z,8.78
2022-11-05T15:04:49.541Z,8.79
2022-11-05T15:10:09.018Z,8.80
2022-11-05T15:15:24.886Z,8.81
2022-11-05T15:20:40.488Z,8.81
2022-11-05T15:25:53.774Z,8.79
2022-11-05T15:31:04.446Z,8.76
2022-11-05T15:36:24.464Z,8.76
2022-11-05T15:41:34.843Z,8.76
2022-11-05T15:46:41.767Z,8.78
2022-11-05T15:51:47.545Z,8.77
2022-11-05T15:56:58.064Z,8.75
2022-11-05T16:02:20.898Z,8.74
2022-11-05T16:07:29.105Z,8.75
2022-11-05T16:12:38.553Z,8.76
2022-11-05T16:17:52.108Z,8.79
2022-11-05T16:28:05.780Z,8.83
2022-11-05T16:33:16.551Z,8.79
2022-11-05T16:38:24.775Z,8.78
2022-11-05T16:43:32.343Z,8.76
2022-11-05T16:48:39.581Z,8.70
2022-11-05T16:53:48.240Z,8.65
2022-11-05T16:58:55.352Z,8.62
2022-11-05T17:04:02.537Z,8.55
2022-11-05T17:09:09.787Z,8.48
2022-11-05T17:14:17.208Z,8.47
2022-11-05T17:19:24.425Z,8.47
2022-11-05T17:24:31.543Z,8.45
2022-11-05T17:29:39.323Z,8.46
2022-11-05T17:34:46.902Z,8.45
2022-11-05T17:39:55.170Z,8.44
2022-11-05T17:45:02.431Z,8.39
2022-11-05T17:50:13.051Z,8.35
2022-11-05T17:55:21.064Z,8.33
2022-11-05T18:00:28.651Z,8.30
2022-11-05T18:05:38.398Z,8.30
2022-11-05T18:10:45.701Z,8.29
2022-11-05T18:15:54.957Z,8.30
2022-11-05T18:21:02.236Z,8.30
2022-11-05T18:26:16.844Z,8.30
2022-11-05T18:31:26.846Z,8.31
2022-11-05T18:36:35.060Z,8.31
2022-11-05T18:41:42.520Z,8.30
2022-11-05T18:46:59.590Z,8.28
2022-11-05T18:52:07.829Z,8.27
2022-11-05T18:57:15.185Z,8.25
2022-11-05T19:02:22.605Z,8.25
2022-11-05T19:07:30.000Z,8.24
2022-11-05T19:12:37.152Z,8.23
2022-11-05T19:17:42.824Z,8.22
2022-11-05T19:22:50.862Z,8.23
2022-11-05T19:27:58.790Z,8.23
2022-11-05T19:33:06.261Z,8.20
2022-11-05T19:38:14.008Z,8.18
2022-11-05T19:43:21.832Z,8.17
2022-11-05T19:48:28.880Z,8.18
2022-11-05T19:53:35.192Z,8.19
2022-11-05T19:58:42.511Z,8.19
2022-11-05T20:03:50.379Z,8.15
2022-11-05T20:09:29.595Z,8.15
2022-11-05T20:14:27.747Z,8.15
2022-11-05T20:19:35.535Z,8.16
2022-11-05T20:24:43.105Z,8.16
2022-11-05T20:29:50.500Z,8.18
2022-11-05T20:34:58.116Z,8.17
2022-11-05T20:40:03.751Z,8.19
2022-11-05T20:45:12.295Z,8.22
2022-11-05T20:50:19.526Z,8.19
2022-11-05T20:55:26.839Z,8.18
2022-11-05T21:00:32.456Z,8.18
2022-11-05T21:05:39.920Z,8.18
2022-11-05T21:10:51.279Z,8.17
2022-11-05T21:16:00.498Z,8.17
2022-11-05T21:21:10.070Z,8.21
2022-11-05T21:26:18.723Z,8.27
2022-11-05T21:31:25.748Z,8.29
2022-11-05T21:36:33.104Z,8.25
2022-11-05T21:41:40.296Z,8.21
2022-11-05T21:46:47.376Z,8.20
2022-11-05T21:52:12.714Z,8.20
2022-11-05T21:57:38.544Z,8.19
2022-11-05T22:02:46.819Z,8.15
2022-11-05T22:07:54.172Z,8.14
2022-11-05T22:13:00.033Z,8.15
2022-11-05T22:18:07.036Z,8.14
2022-11-05T22:23:12.710Z,8.13
2022-11-05T22:28:19.792Z,8.13
2022-11-05T22:33:27.201Z,8.12
2022-11-05T22:38:32.745Z,8.13
2022-11-05T22:43:40.543Z,8.15
2022-11-05T22:48:48.839Z,8.12
2022-11-05T22:53:56.534Z,8.10
2022-11-05T22:59:04.574Z,8.09
2022-11-05T23:04:12.502Z,8.11
2022-11-05T23:09:39.363Z,8.11
2022-11-05T23:14:47.118Z,8.10
2022-11-05T23:20:12.036Z,8.08
2022-11-05T23:25:22.033Z,8.07
2022-11-05T23:30:30.265Z,8.06
2022-11-05T23:35:56.991Z,8.06
2022-11-05T23:41:22.864Z,8.09
2022-11-05T23:46:48.602Z,8.12
2022-11-05T23:51:55.793Z,8.13
2022-11-05T23:57:03.827Z,8.12
